createdAt,value
2022-08-20T00:00:46.331Z,61.50
2022-08-20T00:03:36.800Z,62.22
2022-08-20T00:06:13.324Z,62.87
2022-08-20T00:08:39.991Z,63.94
2022-08-20T00:11:09.802Z,64.69
2022-08-20T00:13:43.492Z,65.66
2022-08-20T00:16:10.515Z,66.11
2022-08-20T00:18:37.484Z,66.27
2022-08-20T00:21:08.468Z,66.22
2022-08-20T00:23:44.694Z,65.93
2022-08-20T00:26:12.538Z,66.13
2022-08-20T00:28:39.777Z,65.01
2022-08-20T00:31:09.602Z,65.23
2022-08-20T00:33:37.083Z,65.04
2022-08-20T00:36:06.510Z,64.92
2022-08-20T00:38:37.818Z,64.50
2022-08-20T00:41:05.916Z,64.90
2022-08-20T00:43:40.432Z,64.27
2022-08-20T00:46:17.980Z,64.58
2022-08-20T00:48:50.440Z,64.71
2022-08-20T00:51:38.277Z,64.91
2022-08-20T00:54:14.007Z,65.60
2022-08-20T00:56:43.849Z,65.40
2022-08-20T00:59:17.286Z,65.53
2022-08-20T01:01:55.167Z,65.60
2022-08-20T01:04:25.308Z,65.96
2022-08-20T01:06:51.963Z,65.44
2022-08-20T01:09:18.404Z,65.44
2022-08-20T01:12:07.606Z,65.37
2022-08-20T01:14:34.422Z,65.03
2022-08-20T01:17:05.033Z,65.45
2022-08-20T01:19:42.063Z,65.03
2022-08-20T01:22:28.177Z,64.95
2022-08-20T01:25:14.213Z,65.15
2022-08-20T01:27:42.599Z,66.20
2022-08-20T01:30:10.581Z,67.08
2022-08-20T01:32:37.157Z,67.89
2022-08-20T01:35:05.611Z,68.42
2022-08-20T01:37:32.107Z,68.18
2022-08-20T01:39:58.968Z,68.01
2022-08-20T01:42:59.019Z,68.10
2022-08-20T01:45:30.305Z,68.32
2022-08-20T01:47:58.994Z,68.46
2022-08-20T01:50:28.712Z,68.11
2022-08-20T01:53:04.342Z,67.69
2022-08-20T01:55:31.639Z,67.70
2022-08-20T01:57:59.191Z,67.84
2022-08-20T02:00:25.878Z,67.86
2022-08-20T02:02:52.523Z,68.05
2022-08-20T02:05:20.088Z,69.15
2022-08-20T02:07:47.229Z,69.80
2022-08-20T02:10:16.939Z,69.77
2022-08-20T02:12:43.540Z,69.83
2022-08-20T02:15:11.580Z,70.19
2022-08-20T02:17:39.892Z,69.76
2022-08-20T02:20:27.360Z,70.41
2022-08-20T02:22:58.596Z,70.41
2022-08-20T02:25:28.315Z,69.76
2022-08-20T02:27:58.109Z,69.57
2022-08-20T02:30:33.224Z,70.08
2022-08-20T02:33:02.630Z,70.65
2022-08-20T02:39:41.548Z,69.62
2022-08-20T02:42:09.274Z,70.11
2022-08-20T02:44:35.758Z,70.09
2022-08-20T02:47:02.182Z,70.82
2022-08-20T02:49:28.631Z,71.31
2022-08-20T02:51:55.137Z,71.44
2022-08-20T02:54:21.578Z,71.77
2022-08-20T02:56:48.014Z,71.70
2022-08-20T02:59:19.553Z,71.65
2022-08-20T03:01:46.684Z,71.20
2022-08-20T03:04:26.134Z,70.91
2022-08-20T03:06:52.890Z,70.58
2022-08-20T03:09:19.368Z,70.33
2022-08-20T03:11:45.830Z,69.78
2022-08-20T03:14:12.257Z,69.82
2022-08-20T03:16:38.716Z,69.89
2022-08-20T03:19:05.117Z,69.76
2022-08-20T03:21:32.259Z,70.31
2022-08-20T03:23:58.673Z,70.95
2022-08-20T03:26:25.140Z,71.52
2022-08-20T03:28:51.577Z,71.79
2022-08-20T03:31:18.499Z,71.42
2022-08-20T03:33:53.218Z,70.81
2022-08-20T03:36:28.080Z,70.52
2022-08-20T03:39:01.693Z,71.17
2022-08-20T03:41:28.888Z,71.62
2022-08-20T03:43:55.760Z,71.79
2022-08-20T03:46:23.767Z,71.74
2022-08-20T03:48:59.529Z,72.47
2022-08-20T03:51:31.655Z,72.61
2022-08-20T03:54:10.051Z,72.54
2022-08-20T03:56:36.465Z,72.06
2022-08-20T03:59:03.110Z,71.97
2022-08-20T04:01:44.530Z,71.06
2022-08-20T04:04:14.936Z,71.33
2022-08-20T04:06:42.775Z,71.68
2022-08-20T04:09:11.802Z,71.46
2022-08-20T04:11:39.229Z,71.64
2022-08-20T04:14:05.656Z,71.00
2022-08-20T04:16:33.045Z,70.76
2022-08-20T04:19:02.231Z,70.46
2022-08-20T04:21:32.566Z,69.92
2022-08-20T04:24:01.212Z,70.02
2022-08-20T04:26:27.860Z,70.03
2022-08-20T04:28:55.865Z,69.79
2022-08-20T04:31:33.019Z,69.89
2022-08-20T04:34:01.399Z,69.58
2022-08-20T04:36:27.979Z,70.13
2022-08-20T04:38:54.429Z,70.43
2022-08-20T04:41:23.236Z,71.31
2022-08-20T04:43:53.949Z,71.38
2022-08-20T04:46:21.854Z,70.85
2022-08-20T04:48:48.699Z,71.67
2022-08-20T04:51:16.539Z,71.70
2022-08-20T04:53:43.074Z,71.65
2022-08-20T04:56:09.690Z,71.70
2022-08-20T04:58:38.122Z,71.67
2022-08-20T05:01:09.730Z,71.37
2022-08-20T05:03:38.534Z,70.74
2022-08-20T05:06:06.165Z,70.64
2022-08-20T05:08:33.325Z,70.55
2022-08-20T05:11:32.984Z,70.68
2022-08-20T05:13:46.449Z,70.52
2022-08-20T05:16:15.088Z,70.95
2022-08-20T05:18:42.479Z,70.92
2022-08-20T05:21:08.948Z,70.25
2022-08-20T05:23:38.881Z,70.42
2022-08-20T05:26:09.119Z,71.21
2022-08-20T05:28:54.454Z,71.08
2022-08-20T05:31:31.839Z,71.18
2022-08-20T05:34:01.801Z,70.82
2022-08-20T05:36:28.362Z,70.28
2022-08-20T05:38:54.824Z,70.36
2022-08-20T05:41:27.738Z,70.07
2022-08-20T05:44:00.539Z,70.07
2022-08-20T05:46:27.682Z,69.91
2022-08-20T05:48:54.169Z,69.49
2022-08-20T05:51:20.574Z,69.14
2022-08-20T05:53:47.120Z,69.40
2022-08-20T05:56:13.940Z,69.48
2022-08-20T05:58:40.441Z,70.05
2022-08-20T06:01:06.979Z,70.67
2022-08-20T06:03:51.995Z,70.42
2022-08-20T06:06:44.639Z,70.94
2022-08-20T06:09:04.957Z,71.22
2022-08-20T06:11:36.421Z,71.92
2022-08-20T06:14:03.910Z,72.19
2022-08-20T06:16:30.647Z,72.06
2022-08-20T06:18:58.572Z,72.50
2022-08-20T06:21:25.676Z,72.85
2022-08-20T06:23:57.056Z,72.83
2022-08-20T06:26:30.350Z,72.51
2022-08-20T06:28:59.188Z,72.38
2022-08-20T06:31:27.251Z,70.35
2022-08-20T06:33:54.401Z,70.19
2022-08-20T06:36:21.335Z,70.21
2022-08-20T06:38:48.063Z,70.51
2022-08-20T06:41:14.652Z,70.31
2022-08-20T06:43:41.061Z,70.58
2022-08-20T06:46:08.180Z,69.86
2022-08-20T06:48:34.932Z,70.25
2022-08-20T06:51:01.530Z,69.76
2022-08-20T06:53:28.881Z,69.68
2022-08-20T06:55:58.742Z,69.51
2022-08-20T06:58:30.468Z,69.38
2022-08-20T07:01:10.096Z,69.22
2022-08-20T07:03:38.550Z,69.54
2022-08-20T07:06:05.705Z,68.98
2022-08-20T07:08:32.780Z,69.28
2022-08-20T07:10:59.648Z,69.18
2022-08-20T07:13:26.174Z,69.29
2022-08-20T07:15:54.220Z,68.98
2022-08-20T07:18:28.168Z,68.95
2022-08-20T07:20:57.257Z,68.60
2022-08-20T07:23:27.073Z,68.63
2022-08-20T07:25:55.613Z,68.67
2022-08-20T07:28:25.814Z,68.13
2022-08-20T07:31:13.299Z,67.85
2022-08-20T07:33:41.661Z,67.39
2022-08-20T07:36:09.446Z,66.58
2022-08-20T07:38:36.797Z,65.49
2022-08-20T07:41:13.262Z,64.49
2022-08-20T07:43:40.926Z,63.86
2022-08-20T07:46:08.962Z,64.09
2022-08-20T07:48:39.821Z,63.27
2022-08-20T07:51:08.296Z,62.81
2022-08-20T07:53:37.871Z,62.61
2022-08-20T07:56:10.280Z,63.27
2022-08-20T07:58:41.507Z,63.05
2022-08-20T08:01:08.200Z,63.26
2022-08-20T08:03:39.463Z,62.56
2022-08-20T08:06:19.667Z,61.72
2022-08-20T08:09:07.906Z,61.29
2022-08-20T08:11:38.190Z,61.23
2022-08-20T08:14:08.113Z,61.22
2022-08-20T08:16:36.281Z,61.14
2022-08-20T08:19:06.529Z,61.10
2022-08-20T08:21:33.067Z,60.31
2022-08-20T08:23:59.506Z,60.15
2022-08-20T08:26:28.592Z,60.25
2022-08-20T08:28:55.051Z,60.27
2022-08-20T08:31:21.525Z,59.60
2022-08-20T08:33:48.280Z,60.02
2022-08-20T08:36:15.905Z,59.42
2022-08-20T08:38:44.644Z,58.70
2022-08-20T08:41:32.006Z,57.79
2022-08-20T08:44:21.278Z,57.14
2022-08-20T08:46:49.616Z,57.04
2022-08-20T08:49:38.018Z,55.78
2022-08-20T08:52:28.249Z,56.37
2022-08-20T08:55:07.369Z,55.98
2022-08-20T08:57:34.244Z,55.74
2022-08-20T09:00:10.234Z,55.40
2022-08-20T09:02:38.798Z,54.45
2022-08-20T09:05:15.410Z,53.90
2022-08-20T09:07:47.256Z,53.97
2022-08-20T09:10:14.096Z,54.15
2022-08-20T09:12:43.349Z,53.31
2022-08-20T09:15:19.070Z,53.71
2022-08-20T09:17:45.504Z,53.54
2022-08-20T09:20:12.064Z,53.60
2022-08-20T09:22:38.661Z,53.26
2022-08-20T09:25:05.597Z,53.23
2022-08-20T09:27:32.033Z,51.52
2022-08-20T09:29:58.808Z,50.56
2022-08-20T09:32:25.551Z,49.36
2022-08-20T09:34:58.854Z,48.98
2022-08-20T09:37:28.257Z,48.71
2022-08-20T09:39:55.571Z,48.70
2022-08-20T09:42:28.506Z,47.95
2022-08-20T09:44:55.679Z,47.80
2022-08-20T09:47:22.813Z,47.61
2022-08-20T09:49:49.724Z,47.35
2022-08-20T09:52:40.853Z,47.11
2022-08-20T09:55:33.702Z,45.52
2022-08-20T09:58:02.946Z,44.88
2022-08-20T10:00:29.701Z,44.79
2022-08-20T10:02:56.194Z,44.30
2022-08-20T10:05:22.824Z,44.77
2022-08-20T10:07:49.354Z,44.44
2022-08-20T10:10:16.172Z,44.32
2022-08-20T10:12:43.238Z,44.57
2022-08-20T10:15:10.666Z,43.85
2022-08-20T10:17:39.408Z,44.27
2022-08-20T10:20:07.862Z,43.73
2022-08-20T10:22:35.258Z,43.22
2022-08-20T10:25:01.889Z,43.43
2022-08-20T10:27:28.355Z,43.20
2022-08-20T10:29:54.788Z,42.73
2022-08-20T10:32:21.282Z,43.06
2022-08-20T10:34:47.784Z,42.14
2022-08-20T10:37:17.885Z,42.59
2022-08-20T10:39:45.136Z,42.00
2022-08-20T10:42:11.743Z,42.13
2022-08-20T10:44:38.345Z,41.78
2022-08-20T10:47:16.601Z,41.02
2022-08-20T10:49:43.312Z,38.93
2022-08-20T10:52:10.013Z,38.66
2022-08-20T10:54:36.546Z,38.44
2022-08-20T10:57:04.078Z,37.54
2022-08-20T10:59:30.710Z,37.51
2022-08-20T11:01:57.289Z,38.40
2022-08-20T11:04:23.718Z,37.31
2022-08-20T11:06:50.147Z,36.65
2022-08-20T11:09:16.665Z,34.89
2022-08-20T11:11:43.095Z,35.26
2022-08-20T11:14:09.601Z,34.83
2022-08-20T11:16:36.071Z,34.04
2022-08-20T11:19:02.481Z,32.64
2022-08-20T11:21:28.921Z,33.03
2022-08-20T11:23:55.404Z,33.10
2022-08-20T11:26:24.204Z,31.43
2022-08-20T11:28:51.298Z,31.76
2022-08-20T11:31:18.043Z,32.01
2022-08-20T11:33:44.451Z,29.86
2022-08-20T11:36:10.897Z,29.71
2022-08-20T11:38:37.399Z,28.47
2022-08-20T11:41:03.797Z,29.54
2022-08-20T11:43:30.240Z,29.98
2022-08-20T11:45:57.684Z,30.25
2022-08-20T11:48:24.114Z,29.38
2022-08-20T11:50:51.601Z,29.50
2022-08-20T11:53:18.405Z,29.66
2022-08-20T11:55:46.728Z,29.52
2022-08-20T11:58:14.321Z,28.69
2022-08-20T12:00:41.090Z,27.94
2022-08-20T12:03:09.398Z,27.12
2022-08-20T12:05:42.808Z,28.11
2022-08-20T12:08:09.705Z,28.29
2022-08-20T12:10:37.990Z,28.08
2022-08-20T12:13:05.375Z,28.65
2022-08-20T12:15:33.610Z,28.32
2022-08-20T12:18:01.153Z,28.30
2022-08-20T12:20:27.707Z,28.67
2022-08-20T12:22:54.189Z,28.46
2022-08-20T12:25:20.966Z,28.88
2022-08-20T12:27:47.469Z,28.41
2022-08-20T12:30:17.415Z,26.74
2022-08-20T12:32:44.710Z,26.04
2022-08-20T12:35:12.329Z,24.87
2022-08-20T12:37:39.463Z,25.41
2022-08-20T12:40:10.691Z,24.48
2022-08-20T12:42:37.726Z,24.71
2022-08-20T12:45:04.622Z,24.23
2022-08-20T12:47:34.353Z,23.78
2022-08-20T12:50:10.409Z,23.02
2022-08-20T12:52:37.684Z,22.70
2022-08-20T12:55:06.250Z,22.54
2022-08-20T12:57:38.388Z,23.14
2022-08-20T13:00:16.910Z,23.13
2022-08-20T13:02:46.557Z,24.68
2022-08-20T13:05:14.095Z,23.18
2022-08-20T13:07:41.947Z,23.47
2022-08-20T13:10:10.942Z,22.83
2022-08-20T13:12:37.443Z,22.49
2022-08-20T13:15:05.022Z,24.47
2022-08-20T13:17:39.103Z,23.91
2022-08-20T13:20:10.789Z,24.34
2022-08-20T13:22:38.356Z,24.77
2022-08-20T13:25:06.323Z,24.91
2022-08-20T13:27:32.865Z,25.62
2022-08-20T13:29:59.435Z,25.72
2022-08-20T13:32:26.272Z,26.15
2022-08-20T13:34:52.915Z,26.23
2022-08-20T13:37:25.278Z,26.46
2022-08-20T13:39:53.318Z,26.37
2022-08-20T13:42:19.937Z,26.80
2022-08-20T13:44:46.402Z,26.40
2022-08-20T13:47:16.869Z,26.85
2022-08-20T13:49:44.053Z,27.17
2022-08-20T13:52:11.402Z,26.19
2022-08-20T13:54:38.459Z,25.89
2022-08-20T13:57:13.617Z,25.92
2022-08-20T13:59:44.041Z,25.52
2022-08-20T14:02:12.105Z,25.34
2022-08-20T14:04:39.353Z,25.05
2022-08-20T14:07:20.289Z,25.04
2022-08-20T14:09:49.741Z,24.75
2022-08-20T14:12:17.687Z,24.77
2022-08-20T14:14:44.469Z,24.62
2022-08-20T14:17:33.530Z,24.88
2022-08-20T14:20:10.188Z,24.36
2022-08-20T14:22:37.249Z,24.76
2022-08-20T14:25:05.666Z,24.54
2022-08-20T14:27:33.716Z,24.36
2022-08-20T14:30:01.138Z,24.94
2022-08-20T14:32:28.336Z,24.86
2022-08-20T14:34:57.072Z,25.12
2022-08-20T14:37:27.212Z,24.99
2022-08-20T14:39:59.490Z,24.95
2022-08-20T14:42:28.138Z,24.16
2022-08-20T14:44:56.584Z,23.25
2022-08-20T14:47:27.706Z,24.14
2022-08-20T14:49:56.575Z,23.75
2022-08-20T14:52:28.177Z,23.97
2022-08-20T14:54:55.425Z,23.49
2022-08-20T14:57:21.934Z,23.68
2022-08-20T14:59:48.968Z,24.17
2022-08-20T15:02:17.556Z,25.25
2022-08-20T15:04:45.587Z,25.58
2022-08-20T15:07:26.589Z,26.15
2022-08-20T15:09:54.040Z,26.20
2022-08-20T15:12:20.597Z,26.22
2022-08-20T15:14:48.054Z,26.45
2022-08-20T15:17:26.969Z,26.80
2022-08-20T15:19:53.969Z,26.36
2022-08-20T15:22:22.093Z,26.86
2022-08-20T15:24:48.803Z,27.48
2022-08-20T15:27:22.422Z,26.76
2022-08-20T15:29:50.305Z,27.96
2022-08-20T15:32:16.753Z,27.97
2022-08-20T15:34:43.266Z,27.14
2022-08-20T15:37:19.162Z,27.46
2022-08-20T15:39:46.736Z,26.91
2022-08-20T15:42:14.044Z,27.13
2022-08-20T15:44:42.058Z,27.53
2022-08-20T15:47:14.074Z,28.16
2022-08-20T15:49:41.026Z,28.67
2022-08-20T15:52:07.649Z,28.97
2022-08-20T15:54:34.966Z,29.89
2022-08-20T15:57:14.623Z,29.97
2022-08-20T15:59:53.726Z,29.83
2022-08-20T16:02:52.155Z,29.87
2022-08-20T16:05:44.953Z,30.01
2022-08-20T16:08:31.279Z,30.31
2022-08-20T16:11:28.736Z,30.66
2022-08-20T16:14:01.669Z,30.36
2022-08-20T16:16:40.698Z,30.62
2022-08-20T16:19:11.606Z,30.40
2022-08-20T16:21:43.873Z,30.21
2022-08-20T16:24:12.877Z,30.83
2022-08-20T16:27:05.025Z,32.13
2022-08-20T16:29:49.861Z,31.35
2022-08-20T16:32:25.621Z,30.94
2022-08-20T16:34:56.330Z,31.15
2022-08-20T16:38:07.970Z,30.98
2022-08-20T16:40:43.298Z,31.14
2022-08-20T16:43:19.822Z,31.31
2022-08-20T16:45:55.731Z,31.21
2022-08-20T16:48:22.765Z,30.99
2022-08-20T16:51:08.853Z,31.29
2022-08-20T16:53:35.715Z,31.37
2022-08-20T16:56:02.455Z,31.60
2022-08-20T16:58:28.986Z,31.56
2022-08-20T17:01:26.025Z,31.35
2022-08-20T17:03:52.571Z,31.35
2022-08-20T17:06:43.239Z,31.18
2022-08-20T17:09:20.167Z,30.93
2022-08-20T17:11:48.021Z,30.90
2022-08-20T17:14:18.094Z,30.96
2022-08-20T17:16:50.785Z,31.62
2022-08-20T17:19:28.534Z,31.50
2022-08-20T17:21:56.629Z,31.85
2022-08-20T17:24:27.049Z,31.94
2022-08-20T17:27:10.769Z,32.04
2022-08-20T17:29:50.295Z,32.22
2022-08-20T17:32:28.952Z,32.01
2022-08-20T17:34:58.719Z,32.40
2022-08-20T17:37:29.748Z,32.55
2022-08-20T17:40:17.664Z,32.49
2022-08-20T17:42:54.013Z,32.98
2022-08-20T17:45:42.366Z,32.89
2022-08-20T17:48:16.631Z,32.69
2022-08-20T17:50:43.972Z,32.90
2022-08-20T17:53:33.090Z,32.88
2022-08-20T17:56:03.749Z,33.02
2022-08-20T17:58:55.021Z,33.21
2022-08-20T18:01:23.365Z,33.14
2022-08-20T18:03:52.205Z,33.21
2022-08-20T18:06:44.257Z,33.08
2022-08-20T18:09:25.860Z,33.46
2022-08-20T18:12:34.398Z,33.53
2022-08-20T18:15:24.259Z,33.82
2022-08-20T18:18:28.645Z,34.01
2022-08-20T18:21:14.202Z,34.42
2022-08-20T18:23:57.622Z,34.59
2022-08-20T18:26:31.851Z,35.08
2022-08-20T18:29:03.562Z,35.25
2022-08-20T18:31:55.654Z,35.36
2022-08-20T18:34:28.166Z,35.15
2022-08-20T18:36:59.817Z,35.78
2022-08-20T18:39:33.429Z,35.61
2022-08-20T18:42:05.458Z,36.08
2022-08-20T18:44:44.133Z,36.61
2022-08-20T18:47:25.977Z,36.66
2022-08-20T18:50:24.341Z,37.28
2022-08-20T18:53:10.942Z,37.74
2022-08-20T18:56:00.292Z,37.68
2022-08-20T18:58:49.887Z,38.52
2022-08-20T19:01:19.310Z,39.17
2022-08-20T19:03:48.822Z,39.28
2022-08-20T19:06:15.170Z,39.15
2022-08-20T19:08:56.698Z,39.18
2022-08-20T19:11:49.245Z,38.75
2022-08-20T19:14:37.567Z,38.94
2022-08-20T19:17:23.450Z,39.42
2022-08-20T19:20:02.026Z,45.01
2022-08-20T19:22:29.677Z,41.25
2022-08-20T19:24:58.634Z,42.50
2022-08-20T19:27:27.006Z,42.25
2022-08-20T19:29:56.877Z,40.41
2022-08-20T19:32:30.293Z,40.74
2022-08-20T19:35:03.691Z,40.86
2022-08-20T19:37:50.521Z,41.40
2022-08-20T19:40:28.487Z,42.19
2022-08-20T19:42:57.996Z,42.73
2022-08-20T19:45:32.334Z,44.08
2022-08-20T19:48:27.062Z,45.01
2022-08-20T19:51:32.578Z,45.10
2022-08-20T19:54:00.785Z,44.89
2022-08-20T19:56:27.881Z,45.66
2022-08-20T19:59:06.493Z,44.90
2022-08-20T20:01:34.019Z,45.08
2022-08-20T20:04:03.684Z,45.30
2022-08-20T20:06:34.799Z,45.54
2022-08-20T20:09:08.542Z,45.39
2022-08-20T20:11:47.364Z,45.80
2022-08-20T20:14:16.252Z,45.87
2022-08-20T20:16:43.075Z,46.13
2022-08-20T20:19:28.226Z,45.79
2022-08-20T20:22:18.962Z,45.94
2022-08-20T20:24:56.676Z,45.87
2022-08-20T20:27:26.477Z,45.65
2022-08-20T20:30:10.467Z,45.42
2022-08-20T20:32:42.009Z,46.31
2022-08-20T20:35:08.781Z,47.60
2022-08-20T20:37:49.656Z,48.74
2022-08-20T20:40:30.552Z,49.18
2022-08-20T20:43:05.891Z,48.96
2022-08-20T20:45:39.732Z,49.47
2022-08-20T20:48:15.527Z,49.76
2022-08-20T20:50:42.448Z,49.22
2022-08-20T20:53:09.129Z,49.83
2022-08-20T20:55:37.704Z,48.71
2022-08-20T20:58:04.556Z,49.86
2022-08-20T21:00:34.032Z,50.90
2022-08-20T21:03:04.068Z,50.95
2022-08-20T21:05:32.122Z,50.85
2022-08-20T21:08:03.129Z,50.19
2022-08-20T21:10:34.834Z,50.82
2022-08-20T21:13:03.385Z,49.99
2022-08-20T21:15:31.840Z,48.73
2022-08-20T21:18:00.705Z,48.73
2022-08-20T21:20:27.833Z,49.09
2022-08-20T21:22:57.489Z,49.62
2022-08-20T21:25:25.358Z,49.88
2022-08-20T21:27:52.243Z,49.77
2022-08-20T21:30:23.110Z,50.23
2022-08-20T21:32:50.071Z,50.66
2022-08-20T21:35:17.231Z,50.51
2022-08-20T21:37:43.888Z,50.88
2022-08-20T21:40:11.702Z,50.43
2022-08-20T21:42:40.110Z,50.87
2022-08-20T21:45:08.559Z,52.09
2022-08-20T21:47:35.980Z,51.68
2022-08-20T21:50:03.710Z,52.02
2022-08-20T21:52:30.275Z,52.31
2022-08-20T21:54:56.835Z,53.52
2022-08-20T21:57:27.533Z,54.50
2022-08-20T21:59:55.022Z,55.05
2022-08-20T22:02:22.066Z,55.39
2022-08-20T22:04:53.772Z,56.06
2022-08-20T22:07:20.903Z,55.89
2022-08-20T22:09:47.333Z,55.65
2022-08-20T22:12:24.731Z,54.59
2022-08-20T22:14:51.258Z,55.08
2022-08-20T22:17:18.242Z,55.31
2022-08-20T22:19:44.905Z,55.01
2022-08-20T22:22:13.180Z,54.90
2022-08-20T22:24:39.675Z,54.51
2022-08-20T22:27:07.320Z,54.49
2022-08-20T22:29:34.189Z,55.12
2022-08-20T22:32:01.005Z,55.06
2022-08-20T22:34:30.515Z,55.18
2022-08-20T22:36:58.333Z,55.56
2022-08-20T22:39:24.849Z,55.03
2022-08-20T22:41:51.404Z,55.48
2022-08-20T22:44:17.871Z,55.85
2022-08-20T22:46:48.816Z,55.03
2022-08-20T22:49:18.275Z,55.60
2022-08-20T22:51:44.893Z,55.76
2022-08-20T22:54:15.355Z,55.68
2022-08-20T22:56:42.729Z,56.22
2022-08-20T22:59:10.448Z,56.66
2022-08-20T23:01:37.633Z,57.08
2022-08-20T23:04:13.154Z,58.02
2022-08-20T23:06:39.882Z,59.07
2022-08-20T23:09:06.465Z,59.64
2022-08-20T23:11:33.489Z,59.68
2022-08-20T23:14:00.038Z,60.82
2022-08-20T23:16:26.533Z,60.89
2022-08-20T23:18:53.096Z,61.22
2022-08-20T23:21:19.825Z,61.00
2022-08-20T23:23:46.908Z,61.27
2022-08-20T23:26:18.854Z,60.07
2022-08-20T23:28:45.761Z,59.95
2022-08-20T23:31:12.467Z,59.82
2022-08-20T23:33:41.826Z,59.37
2022-08-20T23:36:12.360Z,60.21
2022-08-20T23:38:39.169Z,60.02
2022-08-20T23:41:05.908Z,59.96
2022-08-20T23:43:33.184Z,59.27
2022-08-20T23:46:02.571Z,59.02
2022-08-20T23:48:29.330Z,59.78
2022-08-20T23:50:55.892Z,59.74
2022-08-20T23:53:22.398Z,59.58
2022-08-20T23:55:48.975Z,59.92
2022-08-20T23:58:15.677Z,60.29
